createdAt,value
2022-12-22T00:02:36.310Z,4.10
2022-12-22T00:05:31.536Z,4.57
2022-12-22T00:08:17.150Z,4.00
2022-12-22T00:11:02.789Z,4.50
2022-12-22T00:13:48.016Z,4.10
2022-12-22T00:16:34.977Z,3.70
2022-12-22T00:19:20.774Z,3.77
2022-12-22T00:22:06.006Z,3.20
2022-12-22T00:24:51.344Z,3.80
2022-12-22T00:27:45.814Z,6.17
2022-12-22T00:30:32.476Z,6.83
2022-12-22T00:33:20.252Z,7.20
2022-12-22T00:36:05.788Z,10.10
2022-12-22T00:38:51.283Z,10.13
2022-12-22T00:41:36.482Z,9.80
2022-12-22T00:44:21.753Z,9.40
2022-12-22T00:47:07.153Z,8.63
2022-12-22T00:49:55.132Z,8.30
2022-12-22T00:52:42.378Z,9.53
2022-12-22T00:55:32.904Z,10.23
2022-12-22T00:58:19.376Z,10.37
2022-12-22T01:01:04.900Z,10.47
2022-12-22T01:03:50.209Z,11.17
2022-12-22T01:06:36.683Z,10.77
2022-12-22T01:09:23.619Z,10.83
2022-12-22T01:12:09.062Z,10.23
2022-12-22T01:14:54.437Z,10.87
2022-12-22T01:17:39.556Z,10.37
2022-12-22T01:20:26.077Z,11.03
2022-12-22T01:23:12.813Z,11.03
2022-12-22T01:25:58.108Z,12.50
2022-12-22T01:28:43.629Z,10.93
2022-12-22T01:31:35.822Z,11.97
2022-12-22T01:34:21.090Z,11.47
2022-12-22T01:37:06.540Z,11.80
2022-12-22T01:39:53.114Z,11.93
2022-12-22T01:42:38.548Z,10.73
2022-12-22T01:45:38.425Z,11.63
2022-12-22T01:48:24.003Z,9.60
2022-12-22T01:51:09.175Z,9.57
2022-12-22T01:53:54.493Z,10.43
2022-12-22T01:56:41.903Z,10.30
2022-12-22T01:59:27.013Z,12.20
2022-12-22T02:02:13.258Z,10.97
2022-12-22T02:05:03.864Z,11.60
2022-12-22T02:08:14.387Z,11.97
2022-12-22T02:11:24.562Z,10.20
2022-12-22T02:14:30.334Z,12.57
2022-12-22T02:17:25.816Z,10.50
2022-12-22T02:20:30.682Z,10.50
2022-12-22T02:23:23.790Z,10.53
2022-12-22T02:26:13.920Z,10.53
2022-12-22T02:29:01.323Z,9.53
2022-12-22T02:31:53.169Z,9.80
2022-12-22T02:34:38.552Z,9.13
2022-12-22T02:37:34.427Z,8.73
2022-12-22T02:40:26.001Z,9.03
2022-12-22T02:43:24.061Z,9.57
2022-12-22T02:46:19.092Z,8.00
2022-12-22T02:49:10.259Z,9.50
2022-12-22T02:52:02.081Z,8.37
2022-12-22T02:54:48.689Z,7.97
2022-12-22T02:57:34.913Z,8.63
2022-12-22T03:00:20.158Z,8.63
2022-12-22T03:03:07.058Z,8.90
2022-12-22T03:05:52.614Z,7.33
2022-12-22T03:08:37.790Z,7.63
2022-12-22T03:11:23.288Z,7.13
2022-12-22T03:14:08.597Z,7.03
2022-12-22T03:16:54.000Z,8.67
2022-12-22T03:19:40.394Z,6.60
2022-12-22T03:22:25.630Z,7.90
2022-12-22T03:25:11.074Z,6.70
2022-12-22T03:27:38.794Z,6.60
2022-12-22T03:30:07.671Z,7.30
2022-12-22T03:32:35.299Z,5.90
2022-12-22T03:35:04.351Z,6.83
2022-12-22T03:37:32.159Z,5.97
2022-12-22T03:39:59.775Z,5.60
2022-12-22T03:42:45.289Z,5.90
2022-12-22T03:45:30.707Z,6.47
2022-12-22T03:47:58.346Z,6.80
2022-12-22T03:50:27.290Z,6.20
2022-12-22T03:52:54.952Z,5.97
2022-12-22T03:55:22.577Z,6.40
2022-12-22T03:57:50.325Z,6.03
2022-12-22T04:00:18.397Z,6.63
2022-12-22T04:02:46.127Z,6.73
2022-12-22T04:05:13.997Z,6.47
2022-12-22T04:07:43.064Z,6.83
2022-12-22T04:10:29.139Z,6.60
2022-12-22T04:12:56.861Z,7.17
2022-12-22T04:15:25.432Z,7.47
2022-12-22T04:17:53.549Z,8.03
2022-12-22T04:20:22.161Z,6.20
2022-12-22T04:22:51.200Z,5.80
2022-12-22T04:25:19.228Z,5.63
2022-12-22T04:27:47.066Z,5.97
2022-12-22T04:30:16.044Z,6.20
2022-12-22T04:32:43.784Z,6.20
2022-12-22T04:35:12.406Z,5.90
2022-12-22T04:37:40.039Z,4.97
2022-12-22T04:40:09.874Z,5.40
2022-12-22T04:42:37.535Z,5.80
2022-12-22T04:45:06.050Z,6.67
2022-12-22T04:47:33.715Z,5.87
2022-12-22T04:50:01.409Z,6.37
2022-12-22T04:52:29.243Z,5.60
2022-12-22T04:54:56.844Z,4.87
2022-12-22T04:57:25.870Z,5.37
2022-12-22T04:59:53.493Z,6.37
2022-12-22T05:02:21.243Z,6.60
2022-12-22T05:04:49.016Z,6.07
2022-12-22T05:07:16.775Z,6.97
2022-12-22T05:09:44.537Z,6.73
2022-12-22T05:12:29.875Z,6.20
2022-12-22T05:14:58.883Z,7.43
2022-12-22T05:17:26.545Z,7.30
2022-12-22T05:19:54.189Z,7.27
2022-12-22T05:22:21.922Z,6.83
2022-12-22T05:24:49.545Z,6.63
2022-12-22T05:27:17.391Z,6.53
2022-12-22T05:29:45.002Z,6.70
2022-12-22T05:32:13.979Z,7.30
2022-12-22T05:34:41.636Z,6.10
2022-12-22T05:37:09.273Z,6.33
2022-12-22T05:39:37.436Z,7.00
2022-12-22T05:42:05.528Z,7.03
2022-12-22T05:44:33.154Z,7.33
2022-12-22T05:47:00.790Z,6.70
2022-12-22T05:49:29.789Z,6.60
2022-12-22T05:51:57.519Z,6.40
2022-12-22T05:54:25.162Z,7.53
2022-12-22T05:56:52.793Z,8.10
2022-12-22T05:59:20.391Z,7.50
2022-12-22T06:01:48.055Z,8.23
2022-12-22T06:04:16.030Z,8.50
2022-12-22T06:06:45.079Z,9.67
2022-12-22T06:09:12.691Z,8.90
2022-12-22T06:11:40.357Z,8.90
2022-12-22T06:14:07.980Z,8.23
2022-12-22T06:16:35.686Z,9.10
2022-12-22T06:19:03.411Z,8.67
2022-12-22T06:21:31.047Z,8.83
2022-12-22T06:24:00.108Z,8.50
2022-12-22T06:26:27.748Z,9.07
2022-12-22T06:28:55.370Z,11.07
2022-12-22T06:31:23.065Z,8.40
2022-12-22T06:33:50.755Z,7.60
2022-12-22T06:36:18.465Z,9.60
2022-12-22T06:38:46.076Z,8.90
2022-12-22T06:41:15.148Z,8.47
2022-12-22T06:43:41.761Z,8.47
2022-12-22T06:46:09.403Z,8.07
2022-12-22T06:48:37.058Z,7.83
2022-12-22T06:51:04.993Z,7.20
2022-12-22T06:53:32.640Z,6.90
2022-12-22T06:56:00.476Z,6.30
2022-12-22T06:58:29.461Z,6.90
2022-12-22T07:00:57.484Z,8.30
2022-12-22T07:03:25.319Z,8.67
2022-12-22T07:05:53.190Z,8.17
2022-12-22T07:08:20.847Z,8.57
2022-12-22T07:11:00.812Z,8.63
2022-12-22T07:13:31.972Z,8.57
2022-12-22T07:16:01.516Z,9.30
2022-12-22T07:18:30.963Z,8.03
2022-12-22T07:21:00.498Z,6.97
2022-12-22T07:23:28.491Z,6.70
2022-12-22T07:25:56.160Z,7.13
2022-12-22T07:28:23.887Z,7.60
2022-12-22T07:30:53.998Z,7.67
2022-12-22T07:33:21.674Z,7.07
2022-12-22T07:35:49.290Z,7.07
2022-12-22T07:38:16.903Z,7.13
2022-12-22T07:40:49.323Z,7.03
2022-12-22T07:43:19.450Z,8.10
2022-12-22T07:45:47.204Z,6.97
2022-12-22T07:48:33.942Z,7.00
2022-12-22T07:51:04.309Z,5.87
2022-12-22T07:53:32.038Z,6.63
2022-12-22T07:56:03.087Z,6.53
2022-12-22T07:58:30.850Z,6.30
2022-12-22T08:00:59.977Z,6.00
2022-12-22T08:03:29.266Z,5.73
2022-12-22T08:05:56.993Z,5.70
2022-12-22T08:08:24.645Z,6.33
2022-12-22T08:10:52.354Z,6.37
2022-12-22T08:13:20.539Z,5.63
2022-12-22T08:15:48.323Z,6.40
2022-12-22T08:18:15.987Z,6.00
2022-12-22T08:20:51.517Z,7.67
2022-12-22T08:23:19.385Z,6.87
2022-12-22T08:25:53.106Z,7.07
2022-12-22T08:28:20.842Z,6.30
2022-12-22T08:30:49.122Z,6.13
2022-12-22T08:33:16.845Z,8.80
2022-12-22T08:35:44.932Z,8.13
2022-12-22T08:38:15.866Z,6.77
2022-12-22T08:40:45.896Z,6.90
2022-12-22T08:43:13.696Z,7.63
2022-12-22T08:45:43.401Z,7.13
2022-12-22T08:48:11.494Z,6.33
2022-12-22T08:50:39.177Z,6.73
2022-12-22T08:53:23.513Z,6.37
2022-12-22T08:55:57.669Z,6.40
2022-12-22T08:58:25.278Z,6.23
2022-12-22T09:00:52.973Z,5.53
2022-12-22T09:03:20.691Z,5.97
2022-12-22T09:05:48.366Z,5.50
2022-12-22T09:08:16.002Z,5.67
2022-12-22T09:10:44.908Z,5.00
2022-12-22T09:13:13.900Z,4.80
2022-12-22T09:15:41.611Z,4.90
2022-12-22T09:18:09.260Z,5.10
2022-12-22T09:20:36.901Z,6.63
2022-12-22T09:23:04.539Z,5.37
2022-12-22T09:25:32.155Z,4.73
2022-12-22T09:27:59.769Z,5.00
2022-12-22T09:30:28.778Z,6.03
2022-12-22T09:32:56.474Z,4.43
2022-12-22T09:35:24.200Z,4.17
2022-12-22T09:37:51.806Z,4.10
2022-12-22T09:40:21.854Z,4.10
2022-12-22T09:42:49.555Z,4.00
2022-12-22T09:45:20.827Z,3.60
2022-12-22T09:47:53.834Z,4.70
2022-12-22T09:50:24.035Z,5.57
2022-12-22T09:52:54.999Z,4.70
2022-12-22T09:55:38.602Z,4.17
2022-12-22T09:58:22.223Z,3.57
2022-12-22T10:01:03.558Z,3.90
2022-12-22T10:03:44.395Z,4.17
2022-12-22T10:06:18.267Z,4.07
2022-12-22T10:08:46.051Z,4.77
2022-12-22T10:11:17.506Z,5.40
2022-12-22T10:13:45.905Z,5.40
2022-12-22T10:16:22.479Z,4.33
2022-12-22T10:19:00.340Z,4.47
2022-12-22T10:21:29.912Z,4.83
2022-12-22T10:23:57.570Z,4.33
2022-12-22T10:26:30.220Z,5.10
2022-12-22T10:29:02.390Z,5.10
2022-12-22T10:31:32.187Z,4.40
2022-12-22T10:34:14.026Z,4.20
2022-12-22T10:36:43.809Z,4.50
2022-12-22T10:39:12.853Z,3.97
2022-12-22T10:41:45.099Z,3.97
2022-12-22T10:44:20.831Z,4.87
2022-12-22T10:46:50.771Z,3.87
2022-12-22T10:49:23.327Z,3.50
2022-12-22T10:51:54.919Z,3.77
2022-12-22T10:54:31.429Z,3.37
2022-12-22T10:57:05.317Z,3.50
2022-12-22T10:59:34.468Z,3.67
2022-12-22T11:02:27.546Z,3.10
2022-12-22T11:05:03.211Z,3.30
2022-12-22T11:07:33.754Z,3.50
2022-12-22T11:10:01.604Z,3.57
2022-12-22T11:12:41.579Z,3.50
2022-12-22T11:15:24.726Z,3.60
2022-12-22T11:18:03.200Z,2.80
2022-12-22T11:20:42.359Z,2.70
2022-12-22T11:23:20.483Z,2.77
2022-12-22T11:25:58.183Z,2.40
2022-12-22T11:28:41.105Z,2.20
2022-12-22T11:31:38.540Z,1.97
2022-12-22T11:34:20.977Z,2.13
2022-12-22T11:37:02.859Z,2.50
2022-12-22T11:39:40.177Z,2.00
2022-12-22T11:42:23.418Z,2.23
2022-12-22T11:45:00.822Z,2.97
2022-12-22T11:47:40.108Z,4.33
2022-12-22T11:51:00.709Z,4.03
2022-12-22T11:53:30.704Z,3.87
2022-12-22T11:56:13.672Z,3.63
2022-12-22T11:58:53.540Z,3.17
2022-12-22T12:01:37.732Z,2.70
2022-12-22T12:04:21.708Z,2.60
2022-12-22T12:07:04.914Z,2.67
2022-12-22T12:09:44.429Z,2.53
2022-12-22T12:12:25.698Z,2.90
2022-12-22T12:15:05.746Z,2.47
2022-12-22T12:17:49.360Z,2.17
2022-12-22T12:20:30.030Z,2.20
2022-12-22T12:23:11.105Z,1.77
2022-12-22T12:25:47.643Z,1.63
2022-12-22T12:28:24.976Z,1.63
2022-12-22T12:30:56.584Z,1.60
2022-12-22T12:33:39.866Z,1.50
2022-12-22T12:36:15.531Z,1.53
2022-12-22T12:39:10.169Z,1.43
2022-12-22T12:41:51.131Z,1.43
2022-12-22T12:44:21.840Z,1.70
2022-12-22T12:47:04.765Z,1.83
2022-12-22T12:50:16.764Z,1.67
2022-12-22T12:53:15.044Z,2.60
2022-12-22T12:55:57.563Z,2.37
2022-12-22T12:58:50.077Z,1.80
2022-12-22T13:01:55.627Z,2.20
2022-12-22T13:05:01.633Z,3.13
2022-12-22T13:08:08.423Z,2.00
2022-12-22T13:10:38.361Z,2.63
2022-12-22T13:13:06.399Z,2.40
2022-12-22T13:15:37.765Z,2.50
2022-12-22T13:18:10.509Z,2.70
2022-12-22T13:20:38.632Z,2.93
2022-12-22T13:23:15.518Z,3.10
2022-12-22T13:25:53.039Z,2.73
2022-12-22T13:28:24.324Z,2.70
2022-12-22T13:31:00.805Z,2.57
2022-12-22T13:33:32.185Z,2.57
2022-12-22T13:36:00.866Z,2.70
2022-12-22T13:38:30.718Z,2.67
2022-12-22T13:40:59.635Z,2.87
2022-12-22T13:43:29.050Z,3.37
2022-12-22T13:45:59.699Z,2.80
2022-12-22T13:48:35.955Z,2.50
2022-12-22T13:51:13.441Z,2.67
2022-12-22T13:56:38.429Z,3.53
2022-12-22T13:59:17.628Z,3.93
2022-12-22T14:01:51.768Z,3.60
2022-12-22T14:04:19.574Z,4.17
2022-12-22T14:06:47.330Z,4.20
2022-12-22T14:09:18.135Z,4.40
2022-12-22T14:11:52.545Z,4.67
2022-12-22T14:14:27.356Z,5.00
2022-12-22T14:16:58.554Z,4.20
2022-12-22T14:19:27.413Z,4.73
2022-12-22T14:22:04.454Z,4.57
2022-12-22T14:24:38.571Z,4.20
2022-12-22T14:27:16.832Z,4.63
2022-12-22T14:29:44.680Z,4.30
2022-12-22T14:32:35.436Z,4.73
2022-12-22T14:35:03.346Z,4.20
2022-12-22T14:37:33.152Z,3.87
2022-12-22T14:40:01.020Z,4.90
2022-12-22T14:42:29.129Z,5.13
2022-12-22T14:44:56.762Z,5.87
2022-12-22T14:47:26.807Z,5.93
2022-12-22T14:49:58.398Z,6.53
2022-12-22T14:52:33.171Z,6.43
2022-12-22T14:55:01.683Z,6.77
2022-12-22T14:57:33.257Z,6.80
2022-12-22T15:00:06.047Z,7.60
2022-12-22T15:02:40.066Z,7.23
2022-12-22T15:05:26.199Z,7.17
2022-12-22T15:08:06.649Z,7.10
2022-12-22T15:10:40.982Z,8.27
2022-12-22T15:13:14.289Z,8.03
2022-12-22T15:15:42.109Z,8.47
2022-12-22T15:18:16.047Z,7.93
2022-12-22T15:20:43.799Z,7.70
2022-12-22T15:23:14.060Z,8.10
2022-12-22T15:25:42.088Z,7.33
2022-12-22T15:28:09.890Z,6.63
2022-12-22T15:30:38.002Z,7.17
2022-12-22T15:33:05.914Z,7.93
2022-12-22T15:35:36.023Z,7.70
2022-12-22T15:38:03.694Z,7.87
2022-12-22T15:40:31.351Z,7.53
2022-12-22T15:42:59.003Z,7.13
2022-12-22T15:45:26.853Z,6.63
2022-12-22T15:47:56.181Z,6.10
2022-12-22T15:50:27.198Z,6.80
2022-12-22T15:52:58.451Z,6.47
2022-12-22T15:55:26.723Z,6.77
2022-12-22T15:57:58.158Z,7.50
2022-12-22T16:00:26.461Z,8.47
2022-12-22T16:02:54.259Z,8.17
2022-12-22T16:05:22.194Z,8.87
2022-12-22T16:07:49.974Z,8.70
2022-12-22T16:10:26.733Z,10.10
2022-12-22T16:13:00.323Z,9.13
2022-12-22T16:15:29.446Z,9.27
2022-12-22T16:17:57.115Z,9.80
2022-12-22T16:20:25.645Z,9.13
2022-12-22T16:22:54.357Z,8.87
2022-12-22T16:25:27.524Z,8.70
2022-12-22T16:27:55.833Z,7.80
2022-12-22T16:30:26.074Z,7.53
2022-12-22T16:32:53.913Z,8.33
2022-12-22T16:35:23.888Z,7.43
2022-12-22T16:37:51.931Z,6.97
2022-12-22T16:40:20.290Z,8.07
2022-12-22T16:45:38.672Z,9.53
2022-12-22T16:48:11.198Z,8.80
2022-12-22T16:50:39.003Z,8.43
2022-12-22T16:53:06.893Z,7.70
2022-12-22T16:55:35.888Z,7.57
2022-12-22T16:58:12.924Z,7.30
2022-12-22T17:00:44.179Z,6.67
2022-12-22T17:03:15.214Z,7.93
2022-12-22T17:05:45.534Z,7.93
2022-12-22T17:08:20.719Z,7.67
2022-12-22T17:10:48.600Z,8.57
2022-12-22T17:13:17.775Z,8.40
2022-12-22T17:15:45.465Z,8.83
2022-12-22T17:18:17.776Z,11.47
2022-12-22T17:20:46.863Z,9.37
2022-12-22T17:23:27.767Z,11.00
2022-12-22T17:25:55.555Z,9.80
2022-12-22T17:28:24.830Z,13.27
2022-12-22T17:30:52.855Z,9.33
2022-12-22T17:33:20.783Z,8.93
2022-12-22T17:35:48.757Z,10.97
2022-12-22T17:38:19.624Z,11.53
2022-12-22T17:40:49.113Z,12.43
2022-12-22T17:43:18.652Z,13.00
2022-12-22T17:45:48.528Z,13.03
2022-12-22T17:48:17.606Z,12.77
2022-12-22T17:50:49.463Z,12.03
2022-12-22T17:53:20.429Z,13.17
2022-12-22T17:58:36.660Z,14.23
2022-12-22T18:01:05.693Z,16.17
2022-12-22T18:03:33.940Z,13.73
2022-12-22T18:06:01.735Z,13.10
2022-12-22T18:08:29.454Z,13.83
2022-12-22T18:10:57.093Z,13.03
2022-12-22T18:13:26.257Z,12.80
2022-12-22T18:15:55.769Z,10.87
2022-12-22T18:18:24.942Z,10.90
2022-12-22T18:21:05.788Z,10.13
2022-12-22T18:23:37.526Z,11.07
2022-12-22T18:26:08.312Z,9.60
2022-12-22T18:28:36.210Z,9.70
2022-12-22T18:31:03.962Z,8.27
2022-12-22T18:33:33.053Z,8.20
2022-12-22T18:36:01.137Z,8.93
2022-12-22T18:38:31.645Z,8.20
2022-12-22T18:40:59.594Z,9.53
2022-12-22T18:43:27.353Z,8.70
2022-12-22T18:45:55.000Z,7.33
2022-12-22T18:48:22.697Z,7.83
2022-12-22T18:50:51.774Z,6.90
2022-12-22T18:53:26.874Z,7.27
2022-12-22T18:55:54.556Z,6.87
2022-12-22T18:58:24.204Z,5.77
2022-12-22T19:00:53.241Z,5.70
2022-12-22T19:03:23.257Z,6.07
2022-12-22T19:05:52.964Z,4.77
2022-12-22T19:08:23.806Z,4.83
2022-12-22T19:10:53.825Z,4.10
2022-12-22T19:13:27.322Z,4.80
2022-12-22T19:15:55.933Z,4.30
2022-12-22T19:18:27.333Z,4.93
2022-12-22T19:20:57.058Z,5.53
2022-12-22T19:23:26.129Z,6.47
2022-12-22T19:25:56.301Z,7.10
2022-12-22T19:28:28.415Z,6.43
2022-12-22T19:30:57.528Z,7.40
2022-12-22T19:33:30.122Z,6.90
2022-12-22T19:36:01.188Z,6.67
2022-12-22T19:38:30.444Z,6.47
2022-12-22T19:41:02.576Z,6.30
2022-12-22T19:43:31.123Z,6.20
2022-12-22T19:45:58.842Z,7.77
2022-12-22T19:48:28.336Z,9.07
2022-12-22T19:50:56.187Z,8.63
2022-12-22T19:53:26.569Z,8.20
2022-12-22T19:55:57.459Z,8.90
2022-12-22T19:58:27.752Z,9.60
2022-12-22T20:00:56.506Z,8.50
2022-12-22T20:03:26.687Z,12.40
2022-12-22T20:05:54.562Z,9.30
2022-12-22T20:08:22.425Z,11.57
2022-12-22T20:10:58.069Z,9.67
2022-12-22T20:13:32.018Z,8.67
2022-12-22T20:16:00.473Z,7.67
2022-12-22T20:18:30.390Z,6.90
2022-12-22T20:21:02.718Z,7.00
2022-12-22T20:23:33.137Z,6.33
2022-12-22T20:26:04.226Z,6.30
2022-12-22T20:28:33.900Z,6.10
2022-12-22T20:31:02.655Z,5.27
2022-12-22T20:33:31.150Z,5.37
2022-12-22T20:36:00.885Z,4.50
2022-12-22T20:38:33.587Z,4.23
2022-12-22T20:41:03.900Z,5.03
2022-12-22T20:43:33.834Z,3.77
2022-12-22T20:46:04.086Z,4.33
2022-12-22T20:48:34.779Z,4.63
2022-12-22T20:51:02.688Z,5.47
2022-12-22T20:53:30.489Z,5.00
2022-12-22T20:55:58.995Z,5.37
2022-12-22T20:58:29.899Z,5.53
2022-12-22T21:01:00.917Z,5.40
2022-12-22T21:03:29.021Z,5.53
2022-12-22T21:05:56.848Z,6.07
2022-12-22T21:08:26.668Z,6.23
2022-12-22T21:10:56.172Z,7.03
2022-12-22T21:13:23.939Z,6.50
2022-12-22T21:15:53.347Z,5.60
2022-12-22T21:18:22.931Z,5.27
2022-12-22T21:20:51.994Z,5.03
2022-12-22T21:23:19.749Z,5.30
2022-12-22T21:25:53.731Z,7.17
2022-12-22T21:28:26.790Z,6.87
2022-12-22T21:30:55.887Z,5.83
2022-12-22T21:33:24.331Z,5.80
2022-12-22T21:35:53.291Z,5.40
2022-12-22T21:38:23.428Z,4.80
2022-12-22T21:40:51.216Z,5.77
2022-12-22T21:43:19.344Z,6.13
2022-12-22T21:45:50.058Z,6.07
2022-12-22T21:48:21.535Z,7.13
2022-12-22T21:50:50.666Z,7.40
2022-12-22T21:53:22.296Z,8.90
2022-12-22T21:55:50.761Z,7.00
2022-12-22T21:58:18.496Z,5.80
2022-12-22T22:00:48.856Z,6.37
2022-12-22T22:03:17.106Z,7.00
2022-12-22T22:05:47.976Z,7.47
2022-12-22T22:08:15.745Z,6.33
2022-12-22T22:10:44.563Z,9.33
2022-12-22T22:13:14.630Z,8.87
2022-12-22T22:15:42.508Z,7.43
2022-12-22T22:18:16.064Z,7.20
2022-12-22T22:20:43.803Z,6.93
2022-12-22T22:23:14.925Z,7.27
2022-12-22T22:25:42.721Z,7.17
2022-12-22T22:28:12.089Z,7.27
2022-12-22T22:30:42.008Z,8.83
2022-12-22T22:33:11.177Z,8.57
2022-12-22T22:35:41.309Z,7.80
2022-12-22T22:38:13.340Z,8.80
2022-12-22T22:40:44.058Z,9.93
2022-12-22T22:43:12.426Z,8.77
2022-12-22T22:45:40.926Z,7.30
2022-12-22T22:48:18.044Z,7.60
2022-12-22T22:50:46.201Z,9.03
2022-12-22T22:53:15.327Z,7.70
2022-12-22T22:55:43.036Z,7.50
2022-12-22T22:58:11.568Z,7.47
2022-12-22T23:00:39.537Z,7.63
2022-12-22T23:03:07.587Z,8.17
2022-12-22T23:05:36.160Z,8.43
2022-12-22T23:08:03.922Z,7.43
2022-12-22T23:10:39.339Z,6.87
2022-12-22T23:13:09.214Z,6.67
2022-12-22T23:15:36.936Z,7.03
2022-12-22T23:18:04.966Z,7.10
2022-12-22T23:20:32.722Z,8.47
2022-12-22T23:23:00.444Z,8.43
2022-12-22T23:25:28.219Z,12.07
2022-12-22T23:27:57.297Z,10.03
2022-12-22T23:30:24.999Z,10.73
2022-12-22T23:32:52.738Z,11.97
2022-12-22T23:35:20.615Z,12.07
2022-12-22T23:37:48.395Z,14.00
2022-12-22T23:43:05.813Z,11.93
2022-12-22T23:45:34.478Z,14.93
2022-12-22T23:48:02.340Z,11.23
2022-12-22T23:50:30.102Z,11.63
2022-12-22T23:52:57.831Z,12.67
2022-12-22T23:55:25.780Z,10.70
2022-12-22T23:57:54.765Z,12.40
